Donnelly, Canada
Current Conditions -  °F | °C
As of 3:00 PM on Tuesday 27 Jan 2015 (Local Time) from CYPE Reporting Station
Light Snow Light Snow  
Wind Chill:   Ceiling: 2000
Heat Index: 14°   Visibility: 10mi
Dew Point:   Wind: 12mph
Humidity: 79%   Direction: 10°N
Pressure: 29.86"   Gusts: NA
Location:  55.73°N, 117.12°W
Report Text: CYPE 272200Z 01010KT 10SM -SN OVC020 M10/M13 A2986 RMK SC8 SLP154
Loading
Personal Weather Stations






























Interactive Weather Map New forecast layout! Learn more

10-Day Weather Forecast

Advertisements
Track Severe Weather on mobile